createdAt,value
2023-03-13T00:02:46.707Z,8.77
2023-03-13T00:05:48.000Z,8.85
2023-03-13T00:08:49.291Z,7.80
2023-03-13T00:11:50.583Z,7.30
2023-03-13T00:14:51.884Z,8.00
2023-03-13T00:17:53.182Z,8.20
2023-03-13T00:20:54.495Z,7.30
2023-03-13T00:23:55.814Z,7.47
2023-03-13T00:26:57.114Z,7.67
2023-03-13T00:29:58.450Z,7.50
2023-03-13T00:32:59.831Z,7.75
2023-03-13T00:36:01.207Z,7.97
2023-03-13T00:39:02.533Z,6.80
2023-03-13T00:42:03.836Z,7.73
2023-03-13T00:45:05.158Z,7.00
2023-03-13T00:48:06.467Z,7.47
2023-03-13T00:51:07.740Z,7.45
2023-03-13T00:54:09.041Z,7.18
2023-03-13T00:57:10.322Z,6.77
2023-03-13T01:00:11.607Z,6.68
2023-03-13T01:03:13.027Z,7.30
2023-03-13T01:06:14.485Z,6.80
2023-03-13T01:09:15.826Z,6.88
2023-03-13T01:12:17.118Z,6.50
2023-03-13T01:15:18.433Z,7.07
2023-03-13T01:18:19.732Z,6.75
2023-03-13T01:21:21.065Z,6.03
2023-03-13T01:24:22.349Z,6.95
2023-03-13T01:27:23.665Z,7.47
2023-03-13T01:30:24.950Z,6.30
2023-03-13T01:33:26.272Z,6.25
2023-03-13T01:36:27.542Z,5.95
2023-03-13T01:39:28.850Z,6.05
2023-03-13T01:42:30.144Z,7.03
2023-03-13T01:45:31.447Z,6.22
2023-03-13T01:48:32.737Z,5.65
2023-03-13T01:51:34.060Z,5.68
2023-03-13T01:54:35.321Z,6.10
2023-03-13T01:57:36.620Z,5.97
2023-03-13T02:00:37.925Z,5.65
2023-03-13T02:03:39.237Z,6.00
2023-03-13T02:06:40.545Z,5.95
2023-03-13T02:09:41.846Z,5.47
2023-03-13T02:12:43.144Z,5.00
2023-03-13T02:15:44.459Z,6.93
2023-03-13T02:18:45.784Z,5.90
2023-03-13T02:21:47.088Z,5.78
2023-03-13T02:24:48.392Z,5.50
2023-03-13T02:27:49.694Z,5.60
2023-03-13T02:30:50.979Z,5.80
2023-03-13T02:33:52.290Z,5.25
2023-03-13T02:36:53.573Z,5.22
2023-03-13T02:39:54.872Z,6.10
2023-03-13T02:42:56.147Z,4.57
2023-03-13T02:45:57.450Z,4.55
2023-03-13T02:48:58.751Z,5.50
2023-03-13T02:52:00.067Z,4.05
2023-03-13T02:55:01.414Z,5.75
2023-03-13T02:58:02.701Z,4.27
2023-03-13T03:01:04.020Z,4.38
2023-03-13T03:04:05.338Z,4.07
2023-03-13T03:07:06.648Z,5.10
2023-03-13T03:10:08.006Z,4.63
2023-03-13T03:13:09.311Z,5.63
2023-03-13T03:16:10.620Z,5.07
2023-03-13T03:19:11.974Z,4.38
2023-03-13T03:22:13.285Z,4.63
2023-03-13T03:25:14.578Z,5.68
2023-03-13T03:28:15.862Z,4.90
2023-03-13T03:31:17.176Z,4.47
2023-03-13T03:34:18.537Z,4.68
2023-03-13T03:37:19.818Z,4.72
2023-03-13T03:40:21.112Z,5.15
2023-03-13T03:43:22.392Z,5.30
2023-03-13T03:46:23.669Z,5.07
2023-03-13T03:49:24.988Z,4.75
2023-03-13T03:52:26.304Z,4.75
2023-03-13T03:55:27.597Z,4.63
2023-03-13T03:58:28.908Z,4.77
2023-03-13T04:01:30.212Z,4.47
2023-03-13T04:04:31.513Z,4.10
2023-03-13T04:07:32.809Z,4.90
2023-03-13T04:10:34.210Z,4.30
2023-03-13T04:13:35.501Z,4.60
2023-03-13T04:16:36.849Z,5.68
2023-03-13T04:19:38.186Z,4.30
2023-03-13T04:22:39.481Z,5.15
2023-03-13T04:25:40.796Z,4.53
2023-03-13T04:28:42.089Z,4.63
2023-03-13T04:31:43.409Z,4.10
2023-03-13T04:34:44.729Z,4.82
2023-03-13T04:37:46.014Z,4.78
2023-03-13T04:40:47.315Z,4.70
2023-03-13T04:43:48.628Z,5.80
2023-03-13T04:46:49.981Z,5.50
2023-03-13T04:49:51.289Z,5.13
2023-03-13T04:52:52.581Z,7.25
2023-03-13T04:55:53.878Z,4.82
2023-03-13T04:58:55.186Z,5.70
2023-03-13T05:01:56.475Z,8.50
2023-03-13T05:04:57.846Z,8.25
2023-03-13T05:07:59.197Z,7.20
2023-03-13T05:11:00.501Z,8.57
2023-03-13T05:14:01.800Z,8.07
2023-03-13T05:17:03.107Z,8.15
2023-03-13T05:20:04.398Z,29.08
2023-03-13T05:23:05.709Z,60.22
2023-03-13T05:26:07.024Z,31.35
2023-03-13T05:29:08.301Z,29.33
2023-03-13T05:32:09.626Z,33.55
2023-03-13T05:35:10.922Z,23.85
2023-03-13T05:38:12.311Z,22.17
2023-03-13T05:41:13.619Z,24.67
2023-03-13T05:44:14.927Z,16.73
2023-03-13T05:47:16.235Z,15.38
2023-03-13T05:50:17.527Z,23.02
2023-03-13T05:53:18.835Z,20.75
2023-03-13T05:56:20.127Z,19.00
2023-03-13T05:59:21.432Z,20.70
2023-03-13T06:02:22.732Z,15.77
2023-03-13T06:05:24.027Z,17.05
2023-03-13T06:08:25.318Z,18.17
2023-03-13T06:11:26.605Z,17.13
2023-03-13T06:14:27.904Z,15.70
2023-03-13T06:17:29.199Z,17.00
2023-03-13T06:20:30.509Z,12.93
2023-03-13T06:23:31.837Z,25.35
2023-03-13T06:26:33.146Z,18.65
2023-03-13T06:29:34.456Z,14.93
2023-03-13T06:32:35.880Z,16.48
2023-03-13T06:35:46.283Z,14.27
2023-03-13T06:38:56.322Z,18.08
2023-03-13T06:41:57.695Z,14.07
2023-03-13T06:44:58.981Z,15.00
2023-03-13T06:48:00.287Z,22.67
2023-03-13T06:51:01.612Z,25.10
2023-03-13T06:54:02.938Z,34.60
2023-03-13T06:57:04.282Z,46.67
2023-03-13T07:00:05.585Z,36.20
2023-03-13T07:03:06.871Z,47.20
2023-03-13T07:06:08.166Z,39.33
2023-03-13T07:09:09.462Z,46.47
2023-03-13T07:12:10.766Z,29.48
2023-03-13T07:15:12.088Z,28.90
2023-03-13T07:18:13.394Z,39.75
2023-03-13T07:21:14.720Z,37.97
2023-03-13T07:24:16.098Z,34.45
2023-03-13T07:27:17.525Z,34.78
2023-03-13T07:30:18.885Z,32.07
2023-03-13T07:33:20.177Z,27.17
2023-03-13T07:36:21.620Z,35.17
2023-03-13T07:39:22.970Z,27.02
2023-03-13T07:42:24.275Z,37.35
2023-03-13T07:45:25.579Z,44.97
2023-03-13T07:48:26.872Z,24.80
2023-03-13T07:51:42.546Z,24.73
2023-03-13T07:54:44.563Z,23.65
2023-03-13T07:57:45.896Z,18.33
2023-03-13T08:00:47.203Z,28.80
2023-03-13T08:03:48.585Z,22.88
2023-03-13T08:06:49.932Z,25.65
2023-03-13T08:09:51.221Z,22.95
2023-03-13T08:12:52.525Z,17.80
2023-03-13T08:15:53.836Z,25.10
2023-03-13T08:18:55.153Z,17.45
2023-03-13T08:21:56.487Z,21.17
2023-03-13T08:24:57.790Z,21.13
2023-03-13T08:28:00.536Z,20.17
2023-03-13T08:31:03.413Z,22.97
2023-03-13T08:34:04.796Z,19.08
2023-03-13T08:37:06.164Z,19.40
2023-03-13T08:40:07.482Z,16.75
2023-03-13T08:43:08.804Z,20.67
2023-03-13T08:46:10.172Z,20.17
2023-03-13T08:49:11.596Z,23.17
2023-03-13T08:52:12.894Z,11.25
2023-03-13T08:55:14.208Z,14.63
2023-03-13T08:58:15.491Z,9.38
2023-03-13T09:01:16.801Z,125.93
2023-03-13T09:04:18.072Z,129.32
2023-03-13T09:07:19.409Z,73.65
2023-03-13T09:10:20.710Z,62.25
2023-03-13T09:13:22.014Z,45.58
2023-03-13T09:16:23.433Z,46.63
2023-03-13T09:19:24.786Z,44.95
2023-03-13T09:22:26.087Z,27.73
2023-03-13T09:25:27.428Z,35.15
2023-03-13T09:28:29.246Z,31.17
2023-03-13T09:31:30.675Z,55.00
2023-03-13T09:34:32.070Z,69.55
2023-03-13T09:37:33.389Z,55.42
2023-03-13T09:40:34.675Z,33.92
2023-03-13T09:43:36.041Z,29.02
2023-03-13T09:46:37.388Z,25.60
2023-03-13T09:49:38.725Z,33.67
2023-03-13T09:52:40.038Z,36.42
2023-03-13T09:55:41.330Z,29.27
2023-03-13T09:58:42.649Z,26.42
2023-03-13T10:01:44.085Z,24.37
2023-03-13T10:04:45.496Z,24.08
2023-03-13T10:07:46.787Z,14.90
2023-03-13T10:10:48.098Z,22.60
2023-03-13T10:13:49.411Z,22.52
2023-03-13T10:16:50.724Z,21.97
2023-03-13T10:19:52.034Z,15.55
2023-03-13T10:22:53.305Z,18.48
2023-03-13T10:25:54.607Z,23.35
2023-03-13T10:28:55.941Z,123.03
2023-03-13T10:31:57.396Z,118.87
2023-03-13T10:34:58.693Z,69.63
2023-03-13T10:37:59.997Z,70.45
2023-03-13T10:41:01.290Z,45.60
2023-03-13T10:44:02.627Z,42.90
2023-03-13T10:47:04.065Z,30.83
2023-03-13T10:50:05.441Z,35.97
2023-03-13T10:53:07.953Z,18.13
2023-03-13T10:56:09.248Z,32.13
2023-03-13T10:59:10.572Z,50.13
2023-03-13T11:02:11.905Z,45.50
2023-03-13T11:05:13.621Z,26.95
2023-03-13T11:08:15.000Z,39.83
2023-03-13T11:11:16.332Z,54.58
2023-03-13T11:14:17.630Z,31.80
2023-03-13T11:17:18.923Z,38.07
2023-03-13T11:20:20.223Z,35.42
2023-03-13T11:23:21.521Z,35.92
2023-03-13T11:26:22.832Z,32.63
2023-03-13T11:29:24.240Z,25.88
2023-03-13T11:32:25.624Z,18.93
2023-03-13T11:35:26.970Z,32.67
2023-03-13T11:38:28.282Z,22.95
2023-03-13T11:41:29.611Z,28.45
2023-03-13T11:44:30.942Z,14.82
2023-03-13T11:47:32.267Z,21.33
2023-03-13T11:50:33.587Z,27.63
2023-03-13T11:53:34.891Z,63.35
2023-03-13T11:56:36.373Z,56.80
2023-03-13T11:59:37.738Z,57.65
2023-03-13T12:02:39.375Z,47.90
2023-03-13T12:05:40.776Z,54.67
2023-03-13T12:08:42.072Z,29.42
2023-03-13T12:11:43.459Z,26.05
2023-03-13T12:14:44.793Z,18.48
2023-03-13T12:17:46.155Z,22.83
2023-03-13T12:20:47.461Z,20.65
2023-03-13T12:23:48.833Z,21.88
2023-03-13T12:26:50.130Z,24.67
2023-03-13T12:29:51.437Z,24.05
2023-03-13T12:32:52.792Z,23.37
2023-03-13T12:35:54.118Z,35.50
2023-03-13T12:38:55.436Z,33.05
2023-03-13T12:41:56.723Z,35.78
2023-03-13T12:44:58.033Z,23.83
2023-03-13T12:47:59.380Z,29.03
2023-03-13T12:51:00.720Z,28.30
2023-03-13T12:54:02.100Z,21.90
2023-03-13T12:57:03.485Z,22.98
2023-03-13T13:00:04.754Z,33.08
2023-03-13T13:03:06.053Z,26.00
2023-03-13T13:06:07.387Z,25.13
2023-03-13T13:09:08.728Z,37.83
2023-03-13T13:12:10.052Z,28.77
2023-03-13T13:15:11.363Z,27.27
2023-03-13T13:18:12.675Z,28.77
2023-03-13T13:21:13.965Z,27.58
2023-03-13T13:24:15.264Z,22.63
2023-03-13T13:27:16.608Z,23.30
2023-03-13T13:30:17.908Z,27.33
2023-03-13T13:33:19.220Z,25.20
2023-03-13T13:36:20.536Z,27.45
2023-03-13T13:39:21.831Z,22.70
2023-03-13T13:42:23.145Z,23.23
2023-03-13T13:45:24.443Z,22.65
2023-03-13T13:48:25.764Z,25.80
2023-03-13T13:51:27.065Z,23.45
2023-03-13T13:54:28.385Z,23.67
2023-03-13T13:57:29.692Z,21.33
2023-03-13T14:00:31.029Z,18.38
2023-03-13T14:03:32.333Z,22.23
2023-03-13T14:06:33.671Z,19.67
2023-03-13T14:09:36.999Z,21.35
2023-03-13T14:12:38.651Z,17.58
2023-03-13T14:15:39.921Z,16.35
2023-03-13T14:18:41.226Z,13.23
2023-03-13T14:21:42.547Z,22.13
2023-03-13T14:24:43.853Z,17.90
2023-03-13T14:27:45.191Z,26.48
2023-03-13T14:30:46.597Z,18.38
2023-03-13T14:33:47.880Z,17.33
2023-03-13T14:36:49.230Z,18.73
2023-03-13T14:39:50.548Z,15.40
2023-03-13T14:42:51.848Z,19.17
2023-03-13T14:45:53.154Z,24.40
2023-03-13T14:48:54.529Z,18.63
2023-03-13T14:51:55.857Z,17.20
2023-03-13T14:54:57.182Z,23.30
2023-03-13T14:57:58.469Z,29.70
2023-03-13T15:00:59.792Z,23.08
2023-03-13T15:04:01.171Z,26.03
2023-03-13T15:07:02.539Z,25.15
2023-03-13T15:10:03.839Z,28.33
2023-03-13T15:13:05.150Z,25.08
2023-03-13T15:16:06.499Z,21.73
2023-03-13T15:19:07.812Z,15.97
2023-03-13T15:22:09.113Z,16.33
2023-03-13T15:25:10.426Z,23.73
2023-03-13T15:28:11.699Z,20.50
2023-03-13T15:31:13.017Z,22.10
2023-03-13T15:34:14.318Z,25.17
2023-03-13T15:37:15.666Z,30.17
2023-03-13T15:40:16.999Z,32.05
2023-03-13T15:43:18.409Z,34.45
2023-03-13T15:46:19.802Z,32.35
2023-03-13T15:49:21.128Z,32.07
2023-03-13T15:52:22.454Z,74.72
2023-03-13T15:55:23.773Z,132.60
2023-03-13T15:58:25.081Z,110.88
2023-03-13T16:01:26.489Z,96.50
2023-03-13T16:04:27.880Z,96.50
2023-03-13T16:07:29.220Z,74.43
2023-03-13T16:10:30.520Z,92.40
2023-03-13T16:13:31.838Z,69.57
2023-03-13T16:16:36.492Z,57.92
2023-03-13T16:19:38.539Z,43.63
2023-03-13T16:22:39.852Z,38.13
2023-03-13T16:25:41.178Z,33.15
2023-03-13T16:28:42.491Z,20.38
2023-03-13T16:31:43.785Z,21.60
2023-03-13T16:34:45.089Z,16.40
2023-03-13T16:37:46.394Z,14.73
2023-03-13T16:40:47.714Z,15.93
2023-03-13T16:43:49.020Z,13.52
2023-03-13T16:47:04.824Z,14.18
2023-03-13T16:50:07.117Z,13.73
2023-03-13T16:53:08.424Z,11.48
2023-03-13T16:56:09.739Z,16.67
2023-03-13T16:59:11.034Z,15.52
2023-03-13T17:02:12.640Z,14.23
2023-03-13T17:05:14.034Z,12.60
2023-03-13T17:08:15.357Z,13.20
2023-03-13T17:11:17.918Z,12.23
2023-03-13T17:14:19.492Z,12.95
2023-03-13T17:17:20.798Z,11.57
2023-03-13T17:20:22.443Z,10.63
2023-03-13T17:23:24.043Z,11.50
2023-03-13T17:26:25.427Z,20.05
2023-03-13T17:29:26.695Z,29.65
2023-03-13T17:32:28.029Z,34.00
2023-03-13T17:35:29.437Z,32.57
2023-03-13T17:38:30.928Z,38.88
2023-03-13T17:48:12.388Z,35.72
2023-03-13T17:51:14.126Z,36.27
2023-03-13T17:54:18.654Z,32.38
2023-03-13T17:57:20.024Z,31.33
2023-03-13T18:00:21.526Z,28.95
2023-03-13T18:03:23.097Z,26.50
2023-03-13T18:06:24.451Z,24.73
2023-03-13T18:09:26.226Z,25.95
2023-03-13T18:12:30.617Z,25.80
2023-03-13T18:15:32.017Z,25.77
2023-03-13T18:18:33.315Z,24.13
2023-03-13T18:21:34.674Z,23.47
2023-03-13T18:24:36.152Z,21.55
2023-03-13T18:27:37.952Z,22.05
2023-03-13T18:30:40.715Z,21.58
2023-03-13T18:33:42.505Z,20.23
2023-03-13T18:36:44.906Z,21.83
2023-03-13T18:39:46.719Z,21.00
2023-03-13T18:42:48.585Z,20.40
2023-03-13T18:45:50.437Z,21.40
2023-03-13T18:48:52.235Z,21.15
2023-03-13T18:51:54.084Z,18.97
2023-03-13T18:54:55.460Z,18.52
2023-03-13T18:57:57.133Z,20.65
2023-03-13T19:00:58.980Z,16.65
2023-03-13T19:04:01.154Z,20.90
2023-03-13T19:07:02.640Z,17.60
2023-03-13T19:10:03.941Z,16.75
2023-03-13T19:13:05.692Z,17.65
2023-03-13T19:16:07.590Z,16.17
2023-03-13T19:19:09.475Z,17.20
2023-03-13T19:22:10.875Z,16.33
2023-03-13T19:25:12.672Z,16.38
2023-03-13T19:28:15.671Z,16.58
2023-03-13T19:31:18.679Z,15.93
2023-03-13T19:34:20.554Z,15.05
2023-03-13T19:37:22.495Z,13.37
2023-03-13T19:40:24.310Z,14.80
2023-03-13T19:43:26.214Z,13.57
2023-03-13T19:46:28.932Z,13.57
2023-03-13T19:49:30.817Z,16.55
2023-03-13T19:52:32.230Z,14.27
2023-03-13T19:55:33.972Z,13.98
2023-03-13T19:58:35.827Z,13.77
2023-03-13T20:01:37.272Z,14.20
2023-03-13T20:04:39.037Z,12.43
2023-03-13T20:07:41.100Z,13.10
2023-03-13T20:10:44.627Z,13.95
2023-03-13T20:13:46.022Z,13.20
2023-03-13T20:16:47.810Z,12.30
2023-03-13T20:19:49.533Z,12.82
2023-03-13T20:22:51.931Z,11.90
2023-03-13T20:25:53.341Z,12.65
2023-03-13T20:28:55.170Z,13.20
2023-03-13T20:31:56.908Z,13.38
2023-03-13T20:34:58.591Z,10.27
2023-03-13T20:38:00.974Z,10.10
2023-03-13T20:41:03.180Z,11.35
2023-03-13T20:44:04.944Z,12.65
2023-03-13T20:47:06.940Z,11.38
2023-03-13T20:50:09.405Z,10.57
2023-03-13T20:53:11.315Z,12.20
2023-03-13T20:56:13.142Z,11.30
2023-03-13T20:59:14.891Z,10.30
2023-03-13T21:02:16.848Z,9.57
2023-03-13T21:05:21.136Z,11.38
2023-03-13T21:08:22.546Z,10.40
2023-03-13T21:11:23.846Z,10.18
2023-03-13T21:14:25.148Z,9.23
2023-03-13T21:17:26.458Z,9.57
2023-03-13T21:20:28.155Z,9.25
2023-03-13T21:23:29.558Z,11.93
2023-03-13T21:26:31.271Z,9.35
2023-03-13T21:29:32.942Z,10.43
2023-03-13T21:32:34.403Z,8.85
2023-03-13T21:35:36.236Z,10.45
2023-03-13T21:38:38.083Z,9.57
2023-03-13T21:41:39.480Z,8.63
2023-03-13T21:44:40.794Z,9.85
2023-03-13T21:47:42.086Z,9.32
2023-03-13T21:50:43.406Z,9.20
2023-03-13T21:53:44.853Z,8.93
2023-03-13T21:56:46.180Z,9.75
2023-03-13T21:59:47.490Z,10.32
2023-03-13T22:02:48.931Z,9.02
2023-03-13T22:05:50.628Z,10.10
2023-03-13T22:08:52.016Z,10.00
2023-03-13T22:11:53.312Z,10.20
2023-03-13T22:14:56.685Z,7.88
2023-03-13T22:17:58.987Z,8.07
2023-03-13T22:21:00.282Z,9.68
2023-03-13T22:24:01.589Z,8.00
2023-03-13T22:27:02.900Z,8.38
2023-03-13T22:30:04.216Z,9.38
2023-03-13T22:33:05.506Z,7.93
2023-03-13T22:36:06.861Z,9.00
2023-03-13T22:39:08.174Z,7.37
2023-03-13T22:42:09.513Z,7.28
2023-03-13T22:45:10.821Z,7.72
2023-03-13T22:48:12.121Z,7.85
2023-03-13T22:51:13.426Z,7.97
2023-03-13T22:54:14.722Z,7.90
2023-03-13T22:57:16.022Z,7.35
2023-03-13T23:00:17.310Z,8.30
2023-03-13T23:03:18.801Z,8.73
2023-03-13T23:06:20.130Z,7.25
2023-03-13T23:09:21.426Z,7.20
2023-03-13T23:12:22.720Z,7.80
2023-03-13T23:15:24.676Z,6.68
2023-03-13T23:18:27.721Z,8.27
2023-03-13T23:21:29.070Z,6.07
2023-03-13T23:24:30.392Z,6.90
2023-03-13T23:27:31.721Z,6.50
2023-03-13T23:30:33.034Z,6.07
2023-03-13T23:33:34.334Z,6.28
2023-03-13T23:36:35.629Z,7.45
2023-03-13T23:39:36.979Z,5.70
2023-03-13T23:42:38.277Z,7.68
2023-03-13T23:45:39.586Z,6.22
2023-03-13T23:48:40.914Z,7.35
2023-03-13T23:51:42.215Z,6.65
2023-03-13T23:54:43.502Z,6.43
2023-03-13T23:57:44.799Z,6.15
